Aviation Digital Data Service (ADDS)

Output produced by METARs form (0748 UTC 20 February 2018)
found at http://www.aviationweather.gov/adds/metars/
 
KSEG 200653Z AUTO 00000KT 1/4SM FG VV002 04/03 A3028 RMK AO2 SLP259 T00390033 $
KSEG 200553Z AUTO 00000KT 1/4SM FG VV002 04/04 A3029 RMK AO2 SLP260 T00390039 10044 20039 57004 $
KSEG 200453Z AUTO 00000KT 1/4SM FG VV002 04/03 A3029 RMK AO2 SLP262 T00390033 400501039 $
KSEG 200353Z AUTO 00000KT 1/4SM FG VV002 04/04 A3030 RMK AO2 SLP264 T00440039 $
KSEG 200253Z AUTO 00000KT 1/4SM FG VV002 04/04 A3030 RMK AO2 SLP265 T00390039 55005 $
KSEG 200153Z AUTO 12003KT 1/4SM FG VV002 04/03 A3030 RMK AO2 SLP265 T00390033 $
KSEG 200053Z AUTO 00000KT 3/4SM BR OVC002 04/04 A3030 RMK AO2 SLP265 T00390039 $
KSEG 200046Z AUTO 00000KT 3/4SM BR OVC002 04/04 A3030 RMK AO2 T00390039 $
KSEG 200034Z AUTO 17003KT 1SM BR OVC003 04/04 A3030 RMK AO2 T00390039 $
KSEG 200019Z AUTO 17003KT 1 1/2SM BR OVC003 04/04 A3031 RMK AO2 T00390039 $
KSEG 200004Z AUTO 00000KT 2 1/2SM BR OVC004 04/04 A3032 RMK AO2 T00440039 $
KSEG 192353Z AUTO 00000KT 3SM BR OVC004 04/03 A3032 RMK AO2 SLP270 60022 T00440033 10050 20039 51010 $
KSEG 192349Z AUTO 19003KT 3SM BR OVC004 04/04 A3032 RMK AO2 $
KSEG 192318Z AUTO VRB03KT 4SM BR OVC005 04/03 A3030 RMK AO2 T00440033 $
KSEG 192253Z AUTO 00000KT 5SM BR OVC006 04/03 A3030 RMK AO2 RAB14E43 SLP264 P0000 T00440033 $
KSEG 192209Z AUTO VRB03KT 5SM BR OVC006 04/03 A3029 RMK AO2 T00440033 $
KSEG 192153Z AUTO VRB03KT 5SM BR OVC005 04/03 A3029 RMK AO2 RAE53 SLP259 P0002 T00440033 $
KSEG 192128Z AUTO 19004KT 4SM -RA BR OVC005 04/03 A3029 RMK AO2 P0002 T00440033 $
KSEG 192117Z AUTO 19003KT 4SM -RA BR OVC007 04/03 A3029 RMK AO2 P0002 T00440033 $
KSEG 192053Z AUTO 21003KT 2 1/2SM -RA BR BKN008 OVC013 04/03 A3030 RMK AO2 SLP266 P0008 60020 T00440033 58007 $
KSEG 192036Z AUTO 19004KT 2SM -RA BR BKN008 BKN013 OVC036 04/03 A3031 RMK AO2 P0007 T00440033 $
KSEG 192006Z AUTO 21003KT 1 3/4SM RA BR OVC010 04/03 A3032 RMK AO2 CIG 006V013 P0002 T00440028 $
KSEG 191953Z AUTO 20003KT 4SM -RA BR OVC012 04/03 A3031 RMK AO2 RAE20B44 SLP270 P0002 T00440033 $
KSEG 191942Z AUTO 19004KT 5SM BR BKN010 OVC016 04/03 A3032 RMK AO2 RAE20 CIG 006V014 P0002 T00440028 $
KSEG 191918Z AUTO 17004KT 5SM -RA BR FEW008 BKN023 OVC047 04/03 A3032 RMK AO2 P0002 T00390028 $
KSEG 191853Z AUTO 17005KT 3SM -RA BR SCT019 OVC048 04/03 A3033 RMK AO2 RAE1754B11 SLP274 P0010 T00390028 $
KSEG 191843Z AUTO 21004KT 2SM RA BR BKN019 OVC044 04/02 A3034 RMK AO2 RAE1754B11 P0009 T00390022 $
KSEG 191833Z AUTO 17004KT 1 3/4SM RA BKN019 OVC039 04/02 A3033 RMK AO2 RAE1754B11 P0006 T00440017 $
KSEG 191753Z AUTO 19006KT 10SM -RA OVC019 05/01 A3033 RMK AO2 RAB03E21B41 SLP274 P0000 60000 T00500011 10050 20022 58031 $
KSEG 191653Z AUTO 17009KT 10SM BKN019 OVC031 04/01 A3036 RMK AO2 SLP285 T00390006 $
KSEG 191553Z AUTO 18008KT 9SM OVC017 03/01 A3041 RMK AO2 SLP303 T00330006 $
KSEG 191453Z AUTO 17010G15KT 9SM OVC022 03/M01 A3042 RMK AO2 SLP306 T00331006 53000 $
KSEG 191425Z AUTO VRB05KT 10SM BKN028 OVC036 04/M01 A3043 RMK AO2 T00391011 $
KSEG 191353Z AUTO 18007KT 10SM BKN041 OVC055 03/M01 A3041 RMK AO2 SLP302 T00331011 $
KSEG 191253Z AUTO 19007KT 10SM SCT065 OVC100 03/M02 A3042 RMK AO2 SLP305 T00281017 $
KSEG 191153Z AUTO 19004KT 10SM BKN038 BKN070 02/M02 A3042 RMK AO2 SLP305 T00221017 10028 21033 55003 $
KSEG 191053Z AUTO 18009KT 10SM CLR 02/M02 A3041 RMK AO2 SLP302 T00221017 $
KSEG 190953Z AUTO 17006KT 10SM CLR 02/M02 A3043 RMK AO2 SLP307 T00221022 $
KSEG 190853Z AUTO VRB04KT 10SM FEW043 02/M03 A3043 RMK AO2 SLP308 T00171028 55003 $
KSEG 190753Z AUTO 33003KT 8SM CLR M02/M04 A3042 RMK AO2 SLP305 T10221039 $
KSEG 190653Z AUTO 33003KT 8SM CLR M03/M04 A3043 RMK AO2 SLP309 T10281044 $
KSEG 190553Z AUTO 00000KT 8SM CLR M03/M05 A3044 RMK AO2 SLP312 I1000 I6000 T10331050 10006 21039 55003 $
KSEG 190453Z AUTO 00000KT 7SM CLR M04/M05 A3043 RMK AO2 SLP310 I1000 T10391050 400611083 $
KSEG 190353Z AUTO 00000KT 9SM CLR M03/M05 A3044 RMK AO2 SLP314 T10331050 $
KSEG 190253Z AUTO 00000KT 10SM CLR M03/M04 A3045 RMK AO2 SLP315 T10281044 50003 $
KSEG 190153Z AUTO 33003KT 10SM CLR M02/M04 A3045 RMK AO2 SLP316 T10171039 $
KSEG 190053Z AUTO 00000KT 10SM CLR M01/M04 A3044 RMK AO2 SLP314 T10111039 $
KSEG 182353Z AUTO 00000KT 10SM CLR 01/M03 A3044 RMK AO2 SLP313 T00061028 10061 21006 53013 $
KSEG 182253Z AUTO 00000KT 10SM CLR 02/M03 A3042 RMK AO2 SLP305 T00221028 $
KSEG 182153Z AUTO 21005KT 10SM CLR 04/M04 A3041 RMK AO2 SLP303 T00441039 $
KSEG 182053Z AUTO VRB04KT 10SM CLR 06/M03 A3040 RMK AO2 SLP299 T00561033 53007 $
KSEG 181953Z AUTO 00000KT 10SM CLR 06/M04 A3038 RMK AO2 SLP291 T00561044 $